Time;durP1;ratioP1;P1;durP2;ratioP2;P2;SDS_P1;SDS_P2;PMS_P1;PMS_P2;Temp;Humidity;BMP_temperature;BMP_pressure;BME280_temperature;BME280_humidity;BME280_pressure;Samples;Min_cycle;Max_cycle;Signal;HPM_P1;HPM_P2
2023/11/13 00:00:05;;;;;;;10.90;9.70;;;;;;;8.21;100.00;100258.73;105725;1254;63176;-75
2023/11/13 00:02:36;;;;;;;16.40;10.60;;;;;;;8.18;100.00;100264.60;105821;1253;60098;-75
2023/11/13 00:05:04;;;;;;;11.90;10.60;;;;;;;8.17;100.00;100266.05;105777;1253;72147;-75
2023/11/13 00:07:32;;;;;;;12.40;10.60;;;;;;;8.15;100.00;100267.18;105725;1253;62309;-74
2023/11/13 00:10:00;;;;;;;19.60;10.60;;;;;;;8.14;100.00;100267.61;105645;1254;72986;-75
2023/11/13 00:12:28;;;;;;;14.60;10.20;;;;;;;8.13;100.00;100270.66;105745;1254;61104;-75
2023/11/13 00:14:58;;;;;;;15.70;10.60;;;;;;;8.12;100.00;100274.73;105792;1256;59746;-74
2023/11/13 00:17:26;;;;;;;12.10;10.00;;;;;;;8.10;100.00;100278.27;105754;1252;73118;-75
2023/11/13 00:19:53;;;;;;;11.30;9.30;;;;;;;8.08;100.00;100280.48;105742;1256;62944;-74
2023/11/13 00:22:21;;;;;;;13.80;10.20;;;;;;;8.06;100.00;100283.51;105790;1257;73035;-76
2023/11/13 00:24:48;;;;;;;12.40;10.00;;;;;;;8.05;100.00;100289.85;105780;1256;59748;-76
2023/11/13 00:27:16;;;;;;;14.50;11.30;;;;;;;8.03;100.00;100287.67;105788;1256;60752;-75
2023/11/13 00:29:44;;;;;;;11.70;10.50;;;;;;;8.01;100.00;100292.16;105760;1254;73255;-76
2023/11/13 00:32:12;;;;;;;14.50;11.20;;;;;;;7.97;100.00;100295.86;105822;1256;63717;-76
2023/11/13 00:34:40;;;;;;;14.80;10.70;;;;;;;7.93;100.00;100297.66;105698;1254;72758;-78
2023/11/13 00:37:07;;;;;;;11.00;9.70;;;;;;;7.88;100.00;100301.08;105858;1257;60345;-75
2023/11/13 00:39:35;;;;;;;13.40;10.30;;;;;;;7.86;100.00;100302.05;105838;1252;60128;-75
2023/11/13 00:42:04;;;;;;;13.20;10.70;;;;;;;7.83;100.00;100300.64;105801;1254;71697;-76
2023/11/13 00:44:32;;;;;;;11.80;10.00;;;;;;;7.80;100.00;100306.54;105783;1252;61785;-75
2023/11/13 00:46:59;;;;;;;13.00;11.10;;;;;;;7.77;100.00;100308.43;105909;1254;71601;-76
2023/11/13 00:49:29;;;;;;;16.80;11.10;;;;;;;7.75;100.00;100311.83;105849;1254;60093;-76
2023/11/13 00:51:56;;;;;;;13.20;10.30;;;;;;;7.74;100.00;100313.64;105830;1254;59541;-76
2023/11/13 00:54:24;;;;;;;15.20;11.20;;;;;;;7.72;100.00;100318.98;105700;1257;71515;-75
2023/11/13 00:56:52;;;;;;;13.50;11.10;;;;;;;7.72;100.00;100325.59;105798;1253;62575;-77
2023/11/13 00:59:20;;;;;;;13.60;10.70;;;;;;;7.72;100.00;100330.13;105770;1253;71461;-78
2023/11/13 01:01:48;;;;;;;12.80;10.70;;;;;;;7.70;100.00;100325.51;105806;1254;60782;-78
2023/11/13 01:04:16;;;;;;;12.90;10.00;;;;;;;7.68;100.00;100334.30;105919;1252;60390;-78
2023/11/13 01:06:47;;;;;;;13.90;10.20;;;;;;;7.67;100.00;100338.91;105939;1253;71690;-77
2023/11/13 01:09:14;;;;;;;12.00;10.10;;;;;;;7.66;100.00;100339.10;105679;1254;63926;-78
2023/11/13 01:11:42;;;;;;;14.00;10.40;;;;;;;7.64;100.00;100337.99;105844;1254;72468;-75
2023/11/13 01:14:10;;;;;;;14.90;11.40;;;;;;;7.62;100.00;100342.98;105675;1254;59962;-76
2023/11/13 01:16:38;;;;;;;13.00;10.10;;;;;;;7.60;100.00;100349.88;105845;1254;60059;-75
2023/11/13 01:19:06;;;;;;;16.00;11.00;;;;;;;7.59;100.00;100354.48;105789;1257;72898;-76
2023/11/13 01:21:33;;;;;;;13.50;10.60;;;;;;;7.57;100.00;100356.65;105907;1256;63561;-78
2023/11/13 01:24:01;;;;;;;17.50;11.10;;;;;;;7.55;100.00;100362.30;105833;1254;71390;-78
2023/11/13 01:26:29;;;;;;;15.10;11.50;;;;;;;7.54;100.00;100359.73;105805;1254;59860;-77
2023/11/13 01:28:57;;;;;;;12.80;10.50;;;;;;;7.54;100.00;100360.13;105977;1254;60044;-77
2023/11/13 01:31:24;;;;;;;13.30;11.30;;;;;;;7.52;100.00;100356.04;107702;1252;73019;-75
2023/11/13 01:33:52;;;;;;;12.50;10.80;;;;;;;7.50;100.00;100355.42;109303;1252;62398;-75
2023/11/13 01:36:20;;;;;;;16.70;10.70;;;;;;;7.48;100.00;100360.02;106904;1256;71353;-77
2023/11/13 01:38:48;;;;;;;14.90;10.70;;;;;;;7.47;100.00;100364.66;105803;1256;60890;-76
2023/11/13 01:41:16;;;;;;;15.80;10.90;;;;;;;7.46;100.00;100367.26;105828;1256;60803;-76
2023/11/13 01:43:44;;;;;;;16.10;11.90;;;;;;;7.46;100.00;100366.56;105906;1253;71827;-75
2023/11/13 01:46:11;;;;;;;14.70;11.30;;;;;;;7.44;100.00;100376.92;105786;1254;63553;-76
2023/11/13 01:48:39;;;;;;;17.00;11.70;;;;;;;7.43;100.00;100378.23;105827;1254;71873;-75
2023/11/13 01:51:08;;;;;;;14.90;10.70;;;;;;;7.42;100.00;100378.29;105631;1259;59711;-74
2023/11/13 01:53:35;;;;;;;13.30;11.30;;;;;;;7.40;100.00;100381.52;105769;1256;62120;-75
2023/11/13 01:56:03;;;;;;;17.90;11.30;;;;;;;7.38;100.00;100382.29;105627;1259;71816;-75
2023/11/13 01:58:31;;;;;;;14.60;10.30;;;;;;;7.38;100.00;100390.80;105722;1254;63807;-78
2023/11/13 02:00:59;;;;;;;15.10;11.60;;;;;;;7.40;100.00;100390.04;105723;1258;72459;-76
2023/11/13 02:03:27;;;;;;;16.50;12.10;;;;;;;7.40;100.00;100389.69;105783;1254;59749;-75
2023/11/13 02:05:55;;;;;;;14.30;11.10;;;;;;;7.40;100.00;100387.95;105673;1258;60255;-76
2023/11/13 02:08:23;;;;;;;16.30;12.00;;;;;;;7.40;100.00;100392.98;105662;1254;72084;-75
2023/11/13 02:10:51;;;;;;;15.40;12.20;;;;;;;7.41;100.00;100399.73;105526;1252;62893;-75
2023/11/13 02:13:18;;;;;;;16.50;11.10;;;;;;;7.43;100.00;100401.70;105758;1254;71424;-75
2023/11/13 02:15:47;;;;;;;17.40;13.40;;;;;;;7.45;100.00;100402.63;105737;1254;59685;-75
2023/11/13 02:18:14;;;;;;;15.50;12.60;;;;;;;7.46;100.00;100410.40;105682;1254;60159;-76
2023/11/13 02:20:42;;;;;;;14.20;11.20;;;;;;;7.47;100.00;100414.39;109502;1253;71954;-76
2023/11/13 02:23:14;;;;;;;14.60;10.80;;;;;;;7.46;100.00;100418.92;109614;1254;63632;-75
2023/11/13 02:25:53;;;;;;;14.20;11.50;;;;;;;7.46;100.00;100415.81;109484;1254;72710;-75
2023/11/13 02:28:21;;;;;;;17.30;12.40;;;;;;;7.46;100.00;100421.36;109657;1253;60114;-78
2023/11/13 02:30:48;;;;;;;14.80;11.20;;;;;;;7.47;100.00;100419.23;109650;1253;58780;-78
2023/11/13 02:33:16;;;;;;;14.10;11.10;;;;;;;7.50;100.00;100427.65;109619;1252;72178;-77
2023/11/13 02:35:46;;;;;;;15.00;11.60;;;;;;;7.51;100.00;100427.92;109640;1252;64090;-77
2023/11/13 02:38:13;;;;;;;14.60;11.20;;;;;;;7.52;100.00;100431.73;109603;1252;72771;-77
2023/11/13 02:41:55;;;;;;;15.50;11.90;;;;;;;7.54;100.00;100434.73;102480;1291;603841;-78
2023/11/13 02:44:22;;;;;;;17.20;12.10;;;;;;;7.55;100.00;100442.15;105555;1256;61008;-77
2023/11/13 02:46:50;;;;;;;15.40;11.10;;;;;;;7.57;100.00;100442.92;106035;1256;59197;-75
2023/11/13 02:49:17;;;;;;;15.50;12.90;;;;;;;7.56;100.00;100441.21;105615;1262;72276;-79
2023/11/13 02:51:44;;;;;;;18.70;12.40;;;;;;;7.55;100.00;100447.20;105484;1260;62619;-76
2023/11/13 02:54:11;;;;;;;20.00;14.60;;;;;;;7.53;100.00;100450.26;104435;1257;1468292;-77
2023/11/13 02:56:38;;;;;;;21.00;14.20;;;;;;;7.51;100.00;100456.27;105693;1254;59705;-75
2023/11/13 02:59:04;;;;;;;14.10;11.80;;;;;;;7.50;100.00;100457.71;105709;1259;59784;-75
2023/11/13 03:01:31;;;;;;;14.90;11.00;;;;;;;7.48;100.00;100457.95;105935;1254;70752;-75
2023/11/13 03:03:58;;;;;;;17.00;13.10;;;;;;;7.46;100.00;100458.75;106100;1259;63809;-75
2023/11/13 03:06:25;;;;;;;14.70;11.10;;;;;;;7.45;100.00;100463.88;105863;1254;72510;-75
2023/11/13 03:08:52;;;;;;;13.80;11.50;;;;;;;7.44;100.00;100461.99;105709;1259;60246;-77
2023/11/13 03:11:20;;;;;;;16.90;11.80;;;;;;;7.43;100.00;100467.95;105823;1251;60422;-76
2023/11/13 03:13:47;;;;;;;17.30;12.40;;;;;;;7.43;100.00;100469.70;105878;1255;72986;-77
2023/11/13 03:16:14;;;;;;;16.70;12.40;;;;;;;7.41;100.00;100469.11;105885;1251;62543;-77
2023/11/13 03:18:42;;;;;;;15.30;11.30;;;;;;;7.39;100.00;100465.55;105906;1251;72729;-76
2023/11/13 03:21:09;;;;;;;15.00;12.00;;;;;;;7.38;100.00;100472.05;105937;1257;61105;-75
2023/11/13 03:23:37;;;;;;;17.50;12.90;;;;;;;7.37;100.00;100472.80;105966;1253;60193;-76
2023/11/13 03:26:04;;;;;;;15.90;11.80;;;;;;;7.36;100.00;100472.66;105844;1251;72940;-76
2023/11/13 03:28:31;;;;;;;18.40;15.20;;;;;;;7.35;100.00;100469.58;105936;1256;63799;-75
2023/11/13 03:30:58;;;;;;;21.40;16.80;;;;;;;7.34;100.00;100470.52;105898;1253;71951;-76
2023/11/13 03:33:25;;;;;;;20.30;14.00;;;;;;;7.33;100.00;100473.14;105919;1256;61068;-77
2023/11/13 03:35:53;;;;;;;17.80;13.40;;;;;;;7.33;100.00;100474.05;106052;1251;60332;-77
2023/11/13 03:38:19;;;;;;;17.00;13.40;;;;;;;7.32;100.00;100477.19;105931;1251;71435;-77
2023/11/13 03:40:46;;;;;;;17.60;12.80;;;;;;;7.33;100.00;100483.39;105966;1256;63721;-76
2023/11/13 03:43:14;;;;;;;18.00;13.70;;;;;;;7.34;100.00;100481.66;106032;1251;72747;-78
2023/11/13 03:45:47;;;;;;;16.20;12.10;;;;;;;7.34;100.00;100486.69;106009;1255;61104;-76
2023/11/13 03:48:14;;;;;;;15.40;12.70;;;;;;;7.35;100.00;100490.80;105896;1255;60141;-76
2023/11/13 03:50:43;;;;;;;16.20;12.70;;;;;;;7.37;100.00;100495.07;105936;1256;72926;-75
2023/11/13 03:53:10;;;;;;;20.60;14.70;;;;;;;7.37;100.00;100498.70;105841;1255;63813;-76
2023/11/13 03:55:37;;;;;;;16.30;13.40;;;;;;;7.37;100.00;100506.88;105804;1253;72766;-78
2023/11/13 03:58:05;;;;;;;22.60;14.70;;;;;;;7.37;100.00;100504.41;105759;1255;61163;-75
2023/11/13 04:00:34;;;;;;;20.50;13.60;;;;;;;7.38;100.00;100506.11;105808;1255;59590;-75
2023/11/13 04:03:04;;;;;;;18.50;14.20;;;;;;;7.38;100.00;100507.67;105823;1253;71618;-76
2023/11/13 04:05:35;;;;;;;19.40;14.10;;;;;;;7.39;100.00;100507.33;105799;1253;63154;-75
2023/11/13 04:08:03;;;;;;;20.80;14.40;;;;;;;7.38;100.00;100508.90;105871;1251;72570;-77
2023/11/13 04:10:31;;;;;;;18.00;13.10;;;;;;;7.38;100.00;100514.48;105738;1255;61144;-75
2023/11/13 04:12:58;;;;;;;21.30;13.80;;;;;;;7.38;100.00;100515.50;105864;1255;59579;-78
2023/11/13 04:15:25;;;;;;;20.60;13.60;;;;;;;7.39;100.00;100518.06;105861;1251;73096;-77
2023/11/13 04:17:52;;;;;;;23.70;15.20;;;;;;;7.40;100.00;100523.08;105927;1255;63844;-75
2023/11/13 04:20:21;;;;;;;20.10;14.40;;;;;;;7.40;100.00;100521.52;105874;1256;71533;-74
2023/11/13 04:22:54;;;;;;;19.70;14.40;;;;;;;7.40;100.00;100524.80;107244;1251;59817;-75
2023/11/13 04:25:21;;;;;;;20.60;14.70;;;;;;;7.40;100.00;100528.64;108420;1253;59112;-73
2023/11/13 04:27:48;;;;;;;26.80;15.30;;;;;;;7.40;100.00;100529.52;106064;1252;73167;-75
2023/11/13 04:30:15;;;;;;;19.60;14.70;;;;;;;7.40;100.00;100533.86;105829;1253;62547;-76
2023/11/13 04:32:42;;;;;;;20.00;16.10;;;;;;;7.41;100.00;100531.56;106095;1255;72638;-74
2023/11/13 04:35:11;;;;;;;21.50;16.50;;;;;;;7.40;100.00;100536.10;106017;1255;60030;-74
2023/11/13 04:37:39;;;;;;;24.20;16.30;;;;;;;7.40;100.00;100537.66;105916;1253;60143;-74
2023/11/13 04:40:07;;;;;;;22.90;15.10;;;;;;;7.40;100.00;100546.04;105801;1255;70522;-75
2023/11/13 04:42:35;;;;;;;21.00;16.40;;;;;;;7.39;100.00;100551.11;105901;1255;63750;-74
2023/11/13 04:45:02;;;;;;;25.40;16.60;;;;;;;7.39;100.00;100557.55;105935;1251;72444;-75
2023/11/13 04:47:30;;;;;;;24.80;17.60;;;;;;;7.39;100.00;100560.70;105953;1256;61067;-74
2023/11/13 04:49:57;;;;;;;24.50;17.30;;;;;;;7.39;100.00;100568.00;105670;1252;60331;-74
2023/11/13 04:52:24;;;;;;;21.70;17.20;;;;;;;7.40;100.00;100572.28;105673;1255;71581;-75
2023/11/13 04:54:51;;;;;;;19.30;15.60;;;;;;;7.41;100.00;100573.61;105849;1256;62525;-74
2023/11/13 04:57:18;;;;;;;23.90;18.40;;;;;;;7.42;100.00;100580.36;105791;1253;71172;-74
2023/11/13 04:59:48;;;;;;;26.40;16.90;;;;;;;7.42;100.00;100582.64;105788;1255;61164;-74
2023/11/13 05:02:15;;;;;;;24.60;17.70;;;;;;;7.41;100.00;100585.62;105649;1253;60151;-75
2023/11/13 05:04:45;;;;;;;25.10;17.80;;;;;;;7.40;100.00;100588.46;105784;1255;73035;-74
2023/11/13 05:07:12;;;;;;;24.50;16.40;;;;;;;7.39;100.00;100592.02;105756;1255;62645;-74
2023/11/13 05:09:41;;;;;;;26.00;18.80;;;;;;;7.37;100.00;100592.94;105868;1256;72803;-75
2023/11/13 05:12:10;;;;;;;24.90;16.90;;;;;;;7.36;100.00;100596.65;105767;1255;60896;-74
2023/11/13 05:14:40;;;;;;;33.10;20.30;;;;;;;7.36;100.00;100602.05;105905;1251;59627;-78
2023/11/13 05:17:08;;;;;;;28.60;18.10;;;;;;;7.35;100.00;100605.41;105786;1254;71654;-73
2023/11/13 05:19:35;;;;;;;21.60;16.20;;;;;;;7.34;100.00;100609.30;105817;1255;63510;-72
2023/11/13 05:22:02;;;;;;;23.60;18.00;;;;;;;7.33;100.00;100610.89;105859;1255;72708;-73
2023/11/13 05:24:29;;;;;;;24.30;17.50;;;;;;;7.32;100.00;100613.20;105852;1255;63205;-75
2023/11/13 05:26:58;;;;;;;26.40;17.70;;;;;;;7.31;100.00;100618.80;105787;1253;60083;-73
2023/11/13 05:29:26;;;;;;;25.30;18.10;;;;;;;7.31;100.00;100621.23;105900;1255;73092;-77
2023/11/13 05:31:53;;;;;;;22.00;17.00;;;;;;;7.32;100.00;100623.48;105887;1255;63880;-75
2023/11/13 05:34:20;;;;;;;25.70;18.40;;;;;;;7.33;100.00;100629.17;105902;1252;72709;-74
2023/11/13 05:36:47;;;;;;;24.10;17.60;;;;;;;7.34;100.00;100628.58;105795;1256;60932;-75
2023/11/13 05:39:15;;;;;;;28.50;18.00;;;;;;;7.35;100.00;100629.56;105815;1255;59570;-76
2023/11/13 05:41:42;;;;;;;24.30;17.50;;;;;;;7.36;100.00;100635.60;105714;1255;71675;-75
2023/11/13 05:44:09;;;;;;;23.30;17.40;;;;;;;7.37;100.00;100638.86;105858;1255;63927;-75
2023/11/13 05:46:38;;;;;;;26.00;19.60;;;;;;;7.37;100.00;100642.88;105905;1254;71522;-74
2023/11/13 05:49:07;;;;;;;23.30;17.40;;;;;;;7.37;100.00;100644.44;105954;1255;61090;-76
2023/11/13 05:51:34;;;;;;;23.40;18.20;;;;;;;7.38;100.00;100650.84;105868;1256;60370;-74
2023/11/13 05:54:01;;;;;;;24.40;17.90;;;;;;;7.41;100.00;100653.47;105913;1251;71543;-76
2023/11/13 05:56:28;;;;;;;25.80;18.50;;;;;;;7.46;100.00;100652.56;105802;1256;63798;-74
2023/11/13 05:58:56;;;;;;;26.90;18.60;;;;;;;7.52;100.00;100658.04;105716;1255;72452;-76
2023/11/13 06:01:31;;;;;;;23.50;16.60;;;;;;;7.58;100.00;100655.64;105960;1255;60977;-76
2023/11/13 06:03:58;;;;;;;27.30;19.00;;;;;;;7.65;100.00;100657.89;105924;1253;61459;-75
2023/11/13 06:06:25;;;;;;;28.80;18.10;;;;;;;7.74;100.00;100658.18;105825;1252;72941;-76
2023/11/13 06:08:53;;;;;;;25.70;18.10;;;;;;;7.82;100.00;100656.41;105942;1255;63674;-75
2023/11/13 06:11:25;;;;;;;27.10;18.40;;;;;;;7.87;100.00;100657.56;105925;1256;71659;-77
2023/11/13 06:13:52;;;;;;;28.50;19.30;;;;;;;7.92;100.00;100663.45;105841;1256;60997;-75
2023/11/13 06:16:20;;;;;;;22.80;15.80;;;;;;;7.96;100.00;100663.05;105832;1252;59632;-78
2023/11/13 06:18:48;;;;;;;21.00;16.10;;;;;;;7.99;100.00;100662.54;105962;1255;73100;-77
2023/11/13 06:21:16;;;;;;;24.50;16.80;;;;;;;8.02;100.00;100664.15;105880;1253;63029;-78
2023/11/13 06:23:43;;;;;;;22.50;17.60;;;;;;;8.07;100.00;100664.09;106164;1255;72792;-76
2023/11/13 06:26:12;;;;;;;25.50;17.80;;;;;;;8.13;100.00;100665.72;106504;1255;61024;-76
2023/11/13 06:28:40;;;;;;;25.70;17.90;;;;;;;8.19;100.00;100669.97;106067;1252;60350;-77
2023/11/13 06:31:09;;;;;;;22.00;17.80;;;;;;;8.25;100.00;100672.45;105954;1253;73163;-77
2023/11/13 06:33:37;;;;;;;22.60;17.20;;;;;;;8.33;100.00;100671.68;105899;1255;63941;-75
2023/11/13 06:36:11;;;;;;;25.50;17.30;;;;;;;8.43;100.00;100674.34;105913;1253;71087;-77
2023/11/13 06:38:38;;;;;;;22.20;15.80;;;;;;;8.55;100.00;100677.10;105835;1256;61341;-77
2023/11/13 06:41:04;;;;;;;20.50;14.90;;;;;;;8.65;100.00;100671.84;105862;1256;59548;-78
2023/11/13 06:43:32;;;;;;;21.60;15.40;;;;;;;8.74;100.00;100676.30;105773;1255;72987;-77
2023/11/13 06:46:00;;;;;;;23.50;15.80;;;;;;;8.82;100.00;100677.27;105776;1256;64017;-76
2023/11/13 06:48:26;;;;;;;21.70;14.90;;;;;;;8.89;100.00;100685.95;105887;1253;72514;-77
2023/11/13 06:50:53;;;;;;;19.30;15.10;;;;;;;8.92;100.00;100690.70;105825;1255;61006;-79
2023/11/13 06:53:21;;;;;;;22.60;15.70;;;;;;;8.94;100.00;100691.65;105769;1253;60534;-77
2023/11/13 06:55:48;;;;;;;20.10;15.00;;;;;;;8.95;100.00;100700.83;105817;1252;72375;-78
2023/11/13 06:58:15;;;;;;;22.60;15.50;;;;;;;8.96;100.00;100697.27;105810;1252;62736;-79
2023/11/13 07:00:42;;;;;;;18.10;14.50;;;;;;;8.98;100.00;100702.23;105821;1256;72695;-79
2023/11/13 07:03:10;;;;;;;21.20;14.90;;;;;;;9.00;100.00;100701.96;106075;1251;60531;-78
2023/11/13 07:05:38;;;;;;;24.90;15.40;;;;;;;8.99;100.00;100696.96;106187;1251;60553;-76
2023/11/13 07:08:05;;;;;;;23.30;15.60;;;;;;;8.96;100.00;100697.98;105997;1256;73718;-77
2023/11/13 07:10:35;;;;;;;20.40;15.40;;;;;;;8.96;100.00;100698.34;105866;1251;64405;-77
2023/11/13 07:13:02;;;;;;;19.50;14.20;;;;;;;8.95;100.00;100699.96;106066;1255;71302;-77
2023/11/13 07:15:29;;;;;;;20.00;13.90;;;;;;;8.93;100.00;100694.15;109563;1253;61262;-76
2023/11/13 07:17:56;;;;;;;17.00;13.40;;;;;;;8.93;100.00;100693.23;108303;1255;60000;-79
2023/11/13 07:20:23;;;;;;;16.40;12.10;;;;;;;8.93;100.00;100700.39;105774;1256;73701;-79
2023/11/13 07:22:52;;;;;;;16.50;12.90;;;;;;;8.91;100.00;100704.01;105937;1255;63774;-77
2023/11/13 07:25:22;;;;;;;17.40;14.10;;;;;;;8.89;100.00;100703.02;105820;1253;71713;-78
2023/11/13 07:27:50;;;;;;;15.60;12.40;;;;;;;8.86;100.00;100704.44;105859;1255;61132;-77
2023/11/13 07:30:17;;;;;;;20.20;13.60;;;;;;;8.81;100.00;100709.20;105957;1256;60352;-77
2023/11/13 07:32:44;;;;;;;16.50;12.70;;;;;;;8.78;100.00;100710.27;105870;1253;73784;-76
2023/11/13 07:35:12;;;;;;;17.50;12.10;;;;;;;8.75;100.00;100709.33;105797;1252;63955;-76
2023/11/13 07:37:39;;;;;;;18.00;13.20;;;;;;;8.73;100.00;100713.27;105778;1253;72607;-77
2023/11/13 07:40:09;;;;;;;16.70;12.10;;;;;;;8.72;100.00;100717.35;105743;1255;61096;-76
2023/11/13 07:42:37;;;;;;;13.60;11.30;;;;;;;8.75;100.00;100720.34;105840;1253;60436;-76
2023/11/13 07:45:05;;;;;;;12.60;10.50;;;;;;;8.81;100.00;100714.64;105788;1254;73792;-78
2023/11/13 07:47:33;;;;;;;13.90;10.40;;;;;;;8.89;100.00;100713.67;105832;1255;63928;-78
2023/11/13 07:50:00;;;;;;;13.30;10.30;;;;;;;8.96;100.00;100716.61;105776;1252;72501;-77
2023/11/13 07:52:27;;;;;;;13.10;10.30;;;;;;;9.05;100.00;100718.77;105907;1253;61125;-78
2023/11/13 07:54:55;;;;;;;15.10;10.90;;;;;;;9.15;100.00;100717.77;105872;1252;60637;-77
2023/11/13 07:57:23;;;;;;;14.70;10.60;;;;;;;9.26;100.00;100720.27;105915;1251;73678;-77
2023/11/13 07:59:50;;;;;;;14.80;10.20;;;;;;;9.40;100.00;100713.30;105894;1255;63950;-75
2023/11/13 08:02:19;;;;;;;13.60;9.70;;;;;;;9.55;100.00;100711.98;105859;1253;73415;-76
2023/11/13 08:04:46;;;;;;;12.80;9.50;;;;;;;9.71;100.00;100711.23;105855;1255;61731;-77
2023/11/13 08:07:14;;;;;;;11.20;8.80;;;;;;;9.87;100.00;100715.62;105849;1251;60536;-76
2023/11/13 08:09:52;;;;;;;12.60;9.20;;;;;;;10.00;100.00;100716.62;105804;1256;73722;-78
2023/11/13 08:12:19;;;;;;;13.20;9.40;;;;;;;10.07;100.00;100719.38;105841;1255;63779;-77
2023/11/13 08:14:49;;;;;;;12.80;9.80;;;;;;;10.11;100.00;100721.08;105795;1255;72750;-79
2023/11/13 08:17:17;;;;;;;11.90;8.30;;;;;;;10.12;100.00;100716.63;105829;1256;62078;-77
2023/11/13 08:19:45;;;;;;;11.20;8.20;;;;;;;10.11;100.00;100720.89;105779;1251;60944;-79
2023/11/13 08:22:13;;;;;;;10.50;8.90;;;;;;;10.09;100.00;100720.48;105950;1256;72714;-78
2023/11/13 08:24:40;;;;;;;11.00;8.10;;;;;;;10.07;100.00;100728.83;105830;1256;63628;-76
2023/11/13 08:27:07;;;;;;;11.60;8.40;;;;;;;10.05;100.00;100727.36;105755;1256;72419;-77
2023/11/13 08:29:35;;;;;;;12.10;8.80;;;;;;;10.03;100.00;100725.92;105795;1256;60872;-76
2023/11/13 08:32:02;;;;;;;13.20;8.00;;;;;;;10.02;100.00;100727.05;105872;1255;60428;-76
2023/11/13 08:34:30;;;;;;;12.10;9.60;;;;;;;9.99;100.00;100729.47;105936;1255;73604;-77
2023/11/13 08:36:56;;;;;;;12.30;9.00;;;;;;;9.94;100.00;100729.19;105982;1256;63821;-77
2023/11/13 08:39:28;;;;;;;12.10;9.00;;;;;;;9.88;100.00;100729.90;106069;1255;73693;-77
2023/11/13 08:41:56;;;;;;;12.20;9.00;;;;;;;9.83;100.00;100732.80;105768;1256;61010;-79
2023/11/13 08:44:25;;;;;;;13.00;9.40;;;;;;;9.80;100.00;100729.25;105980;1251;60445;-78
2023/11/13 08:46:55;;;;;;;13.90;8.60;;;;;;;9.78;100.00;100729.89;105976;1256;73982;-78
2023/11/13 08:49:22;;;;;;;13.70;9.10;;;;;;;9.77;100.00;100726.13;105909;1256;63585;-75
2023/11/13 08:51:49;;;;;;;12.10;9.30;;;;;;;9.74;100.00;100726.59;105751;1256;71458;-77
2023/11/13 08:54:16;;;;;;;13.70;9.00;;;;;;;9.71;100.00;100725.02;105872;1255;61885;-76
2023/11/13 08:56:49;;;;;;;13.50;9.30;;;;;;;9.67;100.00;100727.50;105957;1255;60473;-78
2023/11/13 08:59:16;;;;;;;12.10;9.10;;;;;;;9.64;100.00;100725.09;105887;1255;74792;-80
2023/11/13 09:01:44;;;;;;;11.50;9.00;;;;;;;9.62;100.00;100721.35;105909;1253;63746;-78
2023/11/13 09:04:13;;;;;;;11.90;8.40;;;;;;;9.61;100.00;100720.02;105828;1256;73382;-77
2023/11/13 09:06:45;;;;;;;12.80;9.30;;;;;;;9.57;100.00;100718.13;105967;1255;61822;-77
2023/11/13 09:09:12;;;;;;;12.40;9.80;;;;;;;9.56;100.00;100723.27;105937;1255;60711;-77
2023/11/13 09:11:41;;;;;;;10.80;8.60;;;;;;;9.56;100.00;100725.52;105991;1251;73802;-77
2023/11/13 09:14:10;;;;;;;10.60;8.50;;;;;;;9.59;100.00;100725.69;105892;1255;63698;-78
2023/11/13 09:16:38;;;;;;;11.70;9.20;;;;;;;9.63;100.00;100725.14;105823;1253;73668;-77
2023/11/13 09:19:05;;;;;;;10.40;8.10;;;;;;;9.65;100.00;100727.98;105864;1255;60464;-76
2023/11/13 09:21:34;;;;;;;9.70;8.30;;;;;;;9.69;100.00;100729.37;105906;1251;60360;-77
2023/11/13 09:24:02;;;;;;;10.60;7.60;;;;;;;9.72;100.00;100729.55;105882;1255;72474;-77
2023/11/13 09:26:29;;;;;;;11.80;8.80;;;;;;;9.77;100.00;100725.27;105945;1254;63877;-77
2023/11/13 09:28:56;;;;;;;8.90;7.80;;;;;;;9.82;100.00;100726.02;105867;1255;73022;-78
2023/11/13 09:31:23;;;;;;;9.10;7.00;;;;;;;9.87;100.00;100720.65;105902;1251;60119;-75
2023/11/13 09:33:52;;;;;;;10.40;8.50;;;;;;;9.92;100.00;100723.01;106024;1256;60454;-78
2023/11/13 09:36:19;;;;;;;9.30;7.20;;;;;;;9.96;100.00;100724.87;105990;1257;74151;-78
2023/11/13 09:38:47;;;;;;;9.10;6.80;;;;;;;9.99;100.00;100730.50;105816;1255;62381;-77
2023/11/13 09:41:18;;;;;;;7.90;6.60;;;;;;;10.01;100.00;100723.05;105835;1253;73071;-77
2023/11/13 09:43:45;;;;;;;13.60;7.80;;;;;;;10.03;100.00;100729.07;105884;1256;63032;-77
2023/11/13 09:46:14;;;;;;;9.60;7.60;;;;;;;10.07;100.00;100726.01;105870;1251;60541;-76
2023/11/13 09:48:51;;;;;;;9.50;7.50;;;;;;;10.22;100.00;100727.27;105765;1252;72839;-78
2023/11/13 09:51:18;;;;;;;8.70;6.70;;;;;;;10.52;100.00;100726.61;105851;1255;63806;-74
2023/11/13 09:53:58;;;;;;;9.50;6.20;;;;;;;11.00;100.00;100729.04;105980;1265;72472;-79
2023/11/13 09:56:28;;;;;;;7.10;6.00;;;;;;;11.57;100.00;100732.77;105890;1255;62410;-78
2023/11/13 09:58:55;;;;;;;7.20;6.40;;;;;;;12.19;100.00;100731.62;105895;1251;60543;-78
2023/11/13 10:01:22;;;;;;;8.60;5.50;;;;;;;12.78;100.00;100736.38;105898;1256;74934;-77
2023/11/13 10:03:49;;;;;;;8.60;5.70;;;;;;;13.25;100.00;100735.27;106773;1253;65327;-76
2023/11/13 10:06:16;;;;;;;6.80;5.40;;;;;;;13.61;100.00;100731.72;109392;1251;71310;-76
2023/11/13 10:08:47;;;;;;;8.40;6.00;;;;;;;13.82;100.00;100731.11;107564;1259;60460;-78
2023/11/13 10:11:15;;;;;;;7.60;6.30;;;;;;;13.96;100.00;100737.67;105828;1255;60764;-76
2023/11/13 10:13:44;;;;;;;6.90;5.20;;;;;;;14.15;100.00;100738.38;105941;1255;75060;-75
2023/11/13 10:16:22;;;;;;;7.60;5.10;;;;;;;14.30;100.00;100739.91;105966;1251;62962;-77
2023/11/13 10:18:49;;;;;;;6.50;5.50;;;;;;;14.46;100.00;100734.89;105860;1263;71922;-76
2023/11/13 10:21:41;;;;;;;5.50;4.90;;;;;;;14.57;100.00;100733.88;105831;1256;60541;-78
2023/11/13 10:24:24;;;;;;;6.50;4.60;;;;;;;14.59;99.90;100735.02;105809;1257;60851;-76
2023/11/13 10:27:07;;;;;;;6.20;5.00;;;;;;;14.57;99.88;100735.35;105883;1251;73655;-76
2023/11/13 10:29:36;;;;;;;6.70;5.20;;;;;;;14.64;99.99;100736.18;105982;1259;63710;-77
2023/11/13 10:32:04;;;;;;;6.10;5.50;;;;;;;14.74;99.11;100736.31;105882;1251;71899;-75
2023/11/13 10:34:41;;;;;;;7.00;5.80;;;;;;;14.82;96.35;100740.81;105873;1255;61595;-77
2023/11/13 10:37:10;;;;;;;7.90;5.60;;;;;;;14.86;97.56;100738.55;105995;1256;60550;-76
2023/11/13 10:39:40;;;;;;;6.40;5.60;;;;;;;14.93;95.81;100737.52;105894;1251;73638;-75
2023/11/13 10:42:22;;;;;;;6.90;5.80;;;;;;;15.08;94.57;100733.76;105887;1256;63910;-78
2023/11/13 10:44:58;;;;;;;7.50;5.50;;;;;;;15.23;93.58;100737.48;105814;1255;70931;-76
2023/11/13 10:47:35;;;;;;;6.60;5.00;;;;;;;15.23;86.79;100729.45;105922;1264;60647;-76
2023/11/13 10:50:08;;;;;;;9.40;5.00;;;;;;;15.16;88.33;100728.73;105928;1255;60420;-78
2023/11/13 10:52:35;;;;;;;6.20;5.10;;;;;;;15.11;86.33;100727.70;106020;1257;74149;-79
2023/11/13 10:55:04;;;;;;;6.30;4.80;;;;;;;14.97;84.07;100724.70;106058;1256;65140;-76
2023/11/13 10:57:32;;;;;;;6.60;5.10;;;;;;;14.88;85.66;100725.25;105950;1253;73883;-76
2023/11/13 10:59:59;;;;;;;7.40;5.30;;;;;;;14.81;87.41;100725.43;105937;1256;60408;-78
2023/11/13 11:02:26;;;;;;;9.40;4.90;;;;;;;14.73;89.93;100724.64;105948;1256;60836;-78
2023/11/13 11:04:56;;;;;;;10.00;5.50;;;;;;;14.59;88.36;100729.56;106506;1254;74937;-75
2023/11/13 11:07:26;;;;;;;6.30;4.80;;;;;;;14.40;87.25;100728.29;105933;1255;64022;-78
2023/11/13 11:09:57;;;;;;;7.90;5.50;;;;;;;14.23;89.59;100733.05;105918;1255;73875;-77